Time;durP1;ratioP1;P1;durP2;ratioP2;P2;SDS_P1;SDS_P2;PMS_P1;PMS_P2;Temp;Humidity;BMP_temperature;BMP_pressure;BME280_temperature;BME280_humidity;BME280_pressure;Samples;Min_cycle;Max_cycle;Signal;HPM_P1;HPM_P2
2021/03/18 00:00:27;;;;;;;;;;;154.20;2022.40;;;;;;5051014;28;19911;-81
2021/03/18 00:02:53;;;;;;;;;;;154.30;2048.00;;;;;;5046817;28;19920;-80
2021/03/18 00:05:19;;;;;;;;;;;154.30;2048.00;;;;;;5046664;28;19905;-80
2021/03/18 00:07:45;;;;;;;;;;;154.00;2073.60;;;;;;5048219;28;19912;-80
2021/03/18 00:10:10;;;;;;;;;;;154.00;2073.60;;;;;;5048510;28;20110;-81
2021/03/18 00:12:36;;;;;;;;;;;153.90;2073.60;;;;;;5046445;28;19958;-81
2021/03/18 00:15:06;;;;;;;;;;;154.00;2073.60;;;;;;5048891;28;19906;-80
2021/03/18 00:17:32;;;;;;;;;;;153.90;2073.60;;;;;;5056995;28;19905;-80
2021/03/18 00:19:57;;;;;;;;;;;153.90;2048.00;;;;;;5065541;28;20379;-79
2021/03/18 00:22:23;;;;;;;;;;;153.80;2048.00;;;;;;5047536;28;19939;-81
2021/03/18 00:24:48;;;;;;;;;;;153.80;2048.00;;;;;;5047299;28;20003;-81
2021/03/18 00:27:14;;;;;;;;;;;154.00;2022.40;;;;;;5048939;28;20035;-81
2021/03/18 00:29:40;;;;;;;;;;;154.00;2022.40;;;;;;5046876;28;19911;-82
2021/03/18 00:32:06;;;;;;;;;;;153.90;2022.40;;;;;;5047910;28;20383;-81
2021/03/18 00:34:31;;;;;;;;;;;154.00;1996.80;;;;;;5045532;28;19960;-80
2021/03/18 00:36:57;;;;;;;;;;;154.00;1996.80;;;;;;5066893;28;19905;-80
2021/03/18 00:39:22;;;;;;;;;;;154.00;1971.20;;;;;;5047322;28;20369;-81
2021/03/18 00:41:48;;;;;;;;;;;153.90;1945.60;;;;;;5064268;28;19909;-81
2021/03/18 00:44:13;;;;;;;;;;;153.90;1971.20;;;;;;5066465;28;20425;-81
2021/03/18 00:46:39;;;;;;;;;;;153.90;1971.20;;;;;;5048398;28;19908;-81
2021/03/18 00:49:05;;;;;;;;;;;153.90;1945.60;;;;;;5048524;28;19947;-81
2021/03/18 00:51:31;;;;;;;;;;;154.00;1920.00;;;;;;5049480;28;19908;-80
2021/03/18 00:53:57;;;;;;;;;;;153.90;1920.00;;;;;;5087387;28;19920;-81
2021/03/18 00:56:22;;;;;;;;;;;154.00;1920.00;;;;;;5093665;28;19983;-81
2021/03/18 00:58:48;;;;;;;;;;;154.00;1920.00;;;;;;5094797;28;20311;-81
2021/03/18 01:01:16;;;;;;;;;;;154.00;1920.00;;;;;;5094933;28;19914;-79
2021/03/18 01:03:42;;;;;;;;;;;154.10;1920.00;;;;;;5093850;28;19904;-80
2021/03/18 01:06:09;;;;;;;;;;;154.00;1920.00;;;;;;5076803;28;19911;-81
2021/03/18 01:08:35;;;;;;;;;;;154.00;1920.00;;;;;;5094616;28;19920;-82
2021/03/18 01:11:04;;;;;;;;;;;153.80;1945.60;;;;;;5092006;28;19915;-81
2021/03/18 01:13:30;;;;;;;;;;;153.80;1945.60;;;;;;5076579;28;19904;-80
2021/03/18 01:15:58;;;;;;;;;;;153.80;1945.60;;;;;;5074083;28;20360;-80
2021/03/18 01:18:34;;;;;;;;;;;153.70;1945.60;;;;;;5094648;28;19952;-81
2021/03/18 01:20:59;;;;;;;;;;;153.60;1971.20;;;;;;5075954;28;20415;-80
2021/03/18 01:23:25;;;;;;;;;;;128.90;1971.20;;;;;;5092382;28;19993;-80
2021/03/18 01:25:50;;;;;;;;;;;128.90;1971.20;;;;;;5090986;28;20304;-82
2021/03/18 01:28:16;;;;;;;;;;;128.90;1971.20;;;;;;5093746;28;19912;-81
2021/03/18 01:30:42;;;;;;;;;;;153.60;1945.60;;;;;;5094786;28;20370;-79
2021/03/18 01:33:07;;;;;;;;;;;153.60;1971.20;;;;;;5094430;28;19904;-81
2021/03/18 01:35:33;;;;;;;;;;;128.90;1971.20;;;;;;5075466;28;19915;-82
2021/03/18 01:37:59;;;;;;;;;;;128.90;1971.20;;;;;;5073541;28;20417;-81
2021/03/18 01:40:27;;;;;;;;;;;128.90;1971.20;;;;;;5094349;28;19908;-80
2021/03/18 01:42:53;;;;;;;;;;;153.60;1996.80;;;;;;5091417;28;19904;-80
2021/03/18 01:45:18;;;;;;;;;;;128.90;1971.20;;;;;;5093916;28;20337;-82
2021/03/18 01:47:45;;;;;;;;;;;128.80;1996.80;;;;;;5075723;28;20417;-81
2021/03/18 01:50:12;;;;;;;;;;;128.70;2022.40;;;;;;5069775;28;19908;-80
2021/03/18 01:52:38;;;;;;;;;;;128.80;2022.40;;;;;;5092782;28;19927;-81
2021/03/18 01:55:05;;;;;;;;;;;128.80;2022.40;;;;;;5071837;28;20312;-81
2021/03/18 01:57:31;;;;;;;;;;;128.50;2022.40;;;;;;5071432;28;19918;-79
2021/03/18 01:59:57;;;;;;;;;;;128.60;2022.40;;;;;;5074282;28;19999;-80
2021/03/18 02:02:23;;;;;;;;;;;128.50;2048.00;;;;;;5090050;28;19904;-80
2021/03/18 02:04:48;;;;;;;;;;;128.60;2048.00;;;;;;5073332;28;19911;-80
2021/03/18 02:07:14;;;;;;;;;;;128.50;2048.00;;;;;;5073168;28;20312;-81
2021/03/18 02:09:39;;;;;;;;;;;128.60;2048.00;;;;;;5075490;28;19904;-80
2021/03/18 02:12:05;;;;;;;;;;;128.50;2048.00;;;;;;5073929;28;20275;-79
2021/03/18 02:14:31;;;;;;;;;;;128.70;2022.40;;;;;;5075913;28;19914;-80
2021/03/18 02:16:58;;;;;;;;;;;128.60;2022.40;;;;;;5075159;28;20330;-80
2021/03/18 02:19:42;;;;;;;;;;;128.60;2048.00;;;;;;5073170;28;20033;-80
2021/03/18 02:22:26;;;;;;;;;;;128.70;2048.00;;;;;;5073353;28;19904;-80
2021/03/18 02:25:11;;;;;;;;;;;128.60;2048.00;;;;;;5074183;28;20257;-80
2021/03/18 02:27:36;;;;;;;;;;;128.60;2048.00;;;;;;5089486;28;19920;-79
2021/03/18 02:30:11;;;;;;;;;;;128.50;2048.00;;;;;;5070185;28;19904;-80
2021/03/18 02:32:49;;;;;;;;;;;128.50;2048.00;;;;;;5071381;28;19908;-80
2021/03/18 02:35:34;;;;;;;;;;;128.50;2073.60;;;;;;5074190;28;19904;-80
2021/03/18 02:38:09;;;;;;;;;;;128.60;2073.60;;;;;;5085628;28;19911;-80
2021/03/18 02:40:55;;;;;;;;;;;128.50;2048.00;;;;;;5075497;28;20371;-81
2021/03/18 02:43:21;;;;;;;;;;;128.40;2073.60;;;;;;5092619;28;19904;-80
2021/03/18 02:45:49;;;;;;;;;;;128.40;2099.20;;;;;;5093409;28;19911;-80
2021/03/18 02:48:20;;;;;;;;;;;128.30;2099.20;;;;;;5075095;28;19983;-80
2021/03/18 02:50:46;;;;;;;;;;;128.10;2124.80;;;;;;5075659;28;20041;-80
2021/03/18 02:53:15;;;;;;;;;;;128.10;2150.40;;;;;;5072683;28;19955;-80
2021/03/18 02:55:43;;;;;;;;;;;128.30;2124.80;;;;;;5074878;28;19924;-81
2021/03/18 02:58:11;;;;;;;;;;;128.10;2150.40;;;;;;5075508;28;19908;-80
2021/03/18 03:00:36;;;;;;;;;;;128.00;2150.40;;;;;;5093139;28;19911;-80
2021/03/18 03:03:03;;;;;;;;;;;103.30;2150.40;;;;;;5075529;28;19907;-80
2021/03/18 03:05:29;;;;;;;;;;;128.20;2150.40;;;;;;5092240;28;20271;-81
2021/03/18 03:07:55;;;;;;;;;;;128.10;2150.40;;;;;;5073713;28;19962;-80
2021/03/18 03:10:22;;;;;;;;;;;128.10;2150.40;;;;;;5092123;28;19939;-80
2021/03/18 03:12:49;;;;;;;;;;;128.10;2150.40;;;;;;5075023;28;19920;-80
2021/03/18 03:15:15;;;;;;;;;;;128.20;2150.40;;;;;;5093269;28;19911;-80
2021/03/18 03:17:41;;;;;;;;;;;128.00;2150.40;;;;;;5074937;28;19912;-80
2021/03/18 03:20:08;;;;;;;;;;;128.00;2176.00;;;;;;5097103;28;19904;-79
2021/03/18 03:22:35;;;;;;;;;;;128.00;2176.00;;;;;;5078903;28;20297;-80
2021/03/18 03:25:01;;;;;;;;;;;103.30;2176.00;;;;;;5078363;28;19916;-80
2021/03/18 03:27:27;;;;;;;;;;;103.30;2176.00;;;;;;5078591;28;19915;-80
2021/03/18 03:29:53;;;;;;;;;;;103.30;2176.00;;;;;;5096629;28;19949;-79
2021/03/18 03:32:18;;;;;;;;;;;128.00;2227.20;;;;;;5078127;28;20005;-81
2021/03/18 03:34:44;;;;;;;;;;;103.30;2201.60;;;;;;5075868;28;19974;-80
2021/03/18 03:37:10;;;;;;;;;;;103.10;2227.20;;;;;;5096626;28;20381;-79
2021/03/18 03:39:36;;;;;;;;;;;103.10;2227.20;;;;;;5096747;28;19911;-80
2021/03/18 03:42:03;;;;;;;;;;;103.00;2227.20;;;;;;5077766;28;19980;-80
2021/03/18 03:44:29;;;;;;;;;;;103.20;2227.20;;;;;;5076036;28;19937;-80
2021/03/18 03:46:54;;;;;;;;;;;103.30;2227.20;;;;;;5076750;28;19908;-80
2021/03/18 03:49:20;;;;;;;;;;;103.20;2227.20;;;;;;5076715;28;20445;-81
2021/03/18 03:51:53;;;;;;;;;;;103.00;2227.20;;;;;;5096374;28;19904;-80
2021/03/18 03:54:20;;;;;;;;;;;103.30;2227.20;;;;;;5096017;28;19927;-80
2021/03/18 03:56:58;;;;;;;;;;;103.10;2227.20;;;;;;5095766;28;19904;-80
2021/03/18 03:59:25;;;;;;;;;;;103.10;2227.20;;;;;;5077879;28;20363;-79
2021/03/18 04:01:52;;;;;;;;;;;103.20;2227.20;;;;;;5076042;28;20328;-80
2021/03/18 04:04:18;;;;;;;;;;;103.10;2227.20;;;;;;5078072;28;19958;-80
2021/03/18 04:06:44;;;;;;;;;;;103.10;2227.20;;;;;;5078192;28;19911;-81
2021/03/18 04:09:12;;;;;;;;;;;103.10;2227.20;;;;;;5077567;28;19915;-80
2021/03/18 04:11:39;;;;;;;;;;;103.00;2227.20;;;;;;5076782;28;19905;-79
2021/03/18 04:14:06;;;;;;;;;;;103.10;2227.20;;;;;;5078116;28;20003;-80
2021/03/18 04:16:32;;;;;;;;;;;103.00;2227.20;;;;;;5076099;28;20550;-78
2021/03/18 04:18:59;;;;;;;;;;;103.00;2227.20;;;;;;5095866;28;19908;-80
2021/03/18 04:21:25;;;;;;;;;;;103.00;2227.20;;;;;;5076061;28;19914;-87
2021/03/18 04:23:51;;;;;;;;;;;102.90;2227.20;;;;;;5096355;28;20381;-81
2021/03/18 04:26:17;;;;;;;;;;;102.90;2227.20;;;;;;5078193;28;19911;-81
2021/03/18 04:28:44;;;;;;;;;;;103.00;2227.20;;;;;;5077822;28;19916;-81
2021/03/18 04:31:10;;;;;;;;;;;102.80;2227.20;;;;;;5074972;28;19987;-82
2021/03/18 04:33:36;;;;;;;;;;;102.80;2227.20;;;;;;5094183;28;19946;-80
2021/03/18 04:36:03;;;;;;;;;;;102.80;2227.20;;;;;;5095315;28;19908;-84
2021/03/18 04:38:29;;;;;;;;;;;102.70;2227.20;;;;;;5086275;28;19904;-83
2021/03/18 04:40:56;;;;;;;;;;;102.70;2227.20;;;;;;5095718;28;19950;-87
2021/03/18 04:43:22;;;;;;;;;;;102.80;2227.20;;;;;;5077756;28;19912;-81
2021/03/18 04:45:48;;;;;;;;;;;102.70;2227.20;;;;;;5074826;28;19908;-82
2021/03/18 04:48:14;;;;;;;;;;;102.60;2227.20;;;;;;5077813;28;20320;-80
2021/03/18 04:50:40;;;;;;;;;;;102.70;2227.20;;;;;;5077844;28;20278;-80
2021/03/18 04:53:06;;;;;;;;;;;102.70;2227.20;;;;;;5074209;28;19916;-88
2021/03/18 04:55:31;;;;;;;;;;;102.50;2227.20;;;;;;5074467;28;20342;-81
2021/03/18 04:57:59;;;;;;;;;;;102.60;2227.20;;;;;;5057384;28;19904;-80
2021/03/18 05:00:26;;;;;;;;;;;102.70;2227.20;;;;;;5057468;28;20274;-85
2021/03/18 05:02:51;;;;;;;;;;;102.70;2227.20;;;;;;5057376;28;20430;-80
2021/03/18 05:05:19;;;;;;;;;;;102.70;2227.20;;;;;;5057230;28;19947;-81
2021/03/18 05:07:45;;;;;;;;;;;102.50;2227.20;;;;;;5057089;28;19919;-82
2021/03/18 05:10:11;;;;;;;;;;;102.60;2227.20;;;;;;5073774;28;19909;-81
2021/03/18 05:12:38;;;;;;;;;;;102.70;2227.20;;;;;;5056976;28;19985;-86
2021/03/18 05:15:05;;;;;;;;;;;102.60;2227.20;;;;;;5057247;28;20376;-85
2021/03/18 05:17:31;;;;;;;;;;;102.70;2227.20;;;;;;5054509;28;19908;-83
2021/03/18 05:19:57;;;;;;;;;;;102.70;2227.20;;;;;;5057383;28;19999;-86
2021/03/18 05:22:22;;;;;;;;;;;102.60;2227.20;;;;;;5056900;28;20527;-81
2021/03/18 05:24:48;;;;;;;;;;;102.50;2227.20;;;;;;5057109;28;19913;-87
2021/03/18 05:27:14;;;;;;;;;;;102.50;2227.20;;;;;;5057217;28;19912;-81
2021/03/18 05:29:39;;;;;;;;;;;102.50;2227.20;;;;;;5057771;28;20375;-81
2021/03/18 05:32:05;;;;;;;;;;;102.50;2227.20;;;;;;5074830;28;19908;-84
2021/03/18 05:34:31;;;;;;;;;;;102.60;2227.20;;;;;;5056979;28;20464;-86
2021/03/18 05:36:56;;;;;;;;;;;102.80;2227.20;;;;;;5057103;28;19908;-86
2021/03/18 05:39:22;;;;;;;;;;;102.80;2227.20;;;;;;5073403;28;19904;-80
2021/03/18 05:41:47;;;;;;;;;;;102.70;2227.20;;;;;;5073195;28;20291;-84
2021/03/18 05:44:13;;;;;;;;;;;102.70;2227.20;;;;;;5073523;28;19904;-81
2021/03/18 05:46:39;;;;;;;;;;;102.60;2227.20;;;;;;5073778;28;19916;-87
2021/03/18 05:49:05;;;;;;;;;;;102.80;2227.20;;;;;;5073756;28;19908;-87
2021/03/18 05:51:36;;;;;;;;;;;102.80;2227.20;;;;;;5073469;28;20395;-82
2021/03/18 05:54:02;;;;;;;;;;;102.70;2227.20;;;;;;5073305;28;19977;-87
2021/03/18 05:56:28;;;;;;;;;;;102.80;2227.20;;;;;;5073867;28;20002;-86
2021/03/18 05:58:54;;;;;;;;;;;102.70;2227.20;;;;;;5073401;28;19935;-81
2021/03/18 06:01:20;;;;;;;;;;;102.70;2227.20;;;;;;5073517;28;19950;-80
2021/03/18 06:03:46;;;;;;;;;;;102.60;2227.20;;;;;;5074506;28;19904;-81
2021/03/18 06:06:12;;;;;;;;;;;102.60;2227.20;;;;;;5072873;28;19908;-81
2021/03/18 06:08:38;;;;;;;;;;;102.60;2227.20;;;;;;5073274;28;19955;-81
2021/03/18 06:11:05;;;;;;;;;;;102.70;2227.20;;;;;;5073657;28;19930;-80
2021/03/18 06:13:31;;;;;;;;;;;102.70;2227.20;;;;;;5073264;28;19929;-81
2021/03/18 06:15:57;;;;;;;;;;;102.40;2227.20;;;;;;5073136;28;20042;-81
2021/03/18 06:18:23;;;;;;;;;;;102.50;2227.20;;;;;;5076423;28;19961;-86
2021/03/18 06:20:49;;;;;;;;;;;102.60;2227.20;;;;;;5076613;28;19904;-90
2021/03/18 06:23:15;;;;;;;;;;;102.50;2227.20;;;;;;5093146;28;19994;-85
2021/03/18 06:25:41;;;;;;;;;;;102.40;2227.20;;;;;;5075968;28;20388;-87
2021/03/18 06:28:12;;;;;;;;;;;102.40;2227.20;;;;;;5075751;28;19919;-83
2021/03/18 06:30:39;;;;;;;;;;;102.50;2227.20;;;;;;5091839;28;19911;-80
2021/03/18 06:33:23;;;;;;;;;;;102.40;2227.20;;;;;;5075619;28;20458;-80
2021/03/18 06:35:49;;;;;;;;;;;102.40;2227.20;;;;;;5092220;28;19955;-80
2021/03/18 06:38:15;;;;;;;;;;;77.70;2227.20;;;;;;5076007;28;19957;-85
2021/03/18 06:40:45;;;;;;;;;;;102.50;2227.20;;;;;;5093877;28;19908;-83
2021/03/18 06:43:11;;;;;;;;;;;77.70;2227.20;;;;;;5075475;28;19903;-85
2021/03/18 06:45:38;;;;;;;;;;;102.70;2227.20;;;;;;5075579;28;19911;-84
2021/03/18 06:48:05;;;;;;;;;;;102.50;2227.20;;;;;;5076057;28;19923;-86
2021/03/18 06:50:33;;;;;;;;;;;102.40;2227.20;;;;;;5076142;28;19907;-92
2021/03/18 06:52:58;;;;;;;;;;;102.50;2227.20;;;;;;5078571;28;20398;-96
2021/03/18 06:55:24;;;;;;;;;;;102.50;2227.20;;;;;;5097579;28;19912;-91
2021/03/18 06:58:09;;;;;;;;;;;102.70;2227.20;;;;;;5080857;28;19915;-80
2021/03/18 07:00:36;;;;;;;;;;;102.60;2227.20;;;;;;5080146;28;19911;-80
2021/03/18 07:03:01;;;;;;;;;;;102.50;2227.20;;;;;;5096956;28;19998;-80
2021/03/18 07:05:27;;;;;;;;;;;102.50;2227.20;;;;;;5097007;28;19947;-86
2021/03/18 07:07:52;;;;;;;;;;;102.80;2227.20;;;;;;5079154;28;19919;-80
2021/03/18 07:10:31;;;;;;;;;;;102.90;2227.20;;;;;;5080582;28;19908;-80
2021/03/18 07:13:13;;;;;;;;;;;102.90;2227.20;;;;;;5080369;28;19926;-92
2021/03/18 07:15:39;;;;;;;;;;;102.60;2227.20;;;;;;5079673;28;20355;-92
2021/03/18 07:18:04;;;;;;;;;;;102.90;2227.20;;;;;;5079828;28;19954;-89
2021/03/18 07:20:30;;;;;;;;;;;102.80;2227.20;;;;;;5096798;28;19978;-90
2021/03/18 07:22:56;;;;;;;;;;;102.80;2227.20;;;;;;5096862;28;19904;-80
2021/03/18 07:25:29;;;;;;;;;;;102.80;2227.20;;;;;;5079343;28;19916;-91
2021/03/18 07:27:58;;;;;;;;;;;103.00;2227.20;;;;;;5079228;28;19916;-79
2021/03/18 07:30:37;;;;;;;;;;;102.80;2227.20;;;;;;5079171;28;19912;-81
2021/03/18 07:33:04;;;;;;;;;;;102.80;2227.20;;;;;;5078630;28;20367;-81
2021/03/18 07:35:29;;;;;;;;;;;103.00;2227.20;;;;;;5079427;28;19943;-82
2021/03/18 07:37:55;;;;;;;;;;;103.00;2227.20;;;;;;5078732;28;19966;-80
2021/03/18 07:40:22;;;;;;;;;;;103.00;2227.20;;;;;;5079137;28;19957;-85
2021/03/18 07:42:49;;;;;;;;;;;103.00;2227.20;;;;;;5079427;28;20003;-87
2021/03/18 07:45:16;;;;;;;;;;;102.90;2227.20;;;;;;5079298;28;19936;-81
2021/03/18 07:47:42;;;;;;;;;;;102.90;2227.20;;;;;;5079138;28;19916;-81
2021/03/18 07:50:09;;;;;;;;;;;102.70;2227.20;;;;;;5097062;28;19915;-80
2021/03/18 07:52:36;;;;;;;;;;;103.00;2227.20;;;;;;5078035;28;20374;-81
2021/03/18 07:55:02;;;;;;;;;;;102.80;2227.20;;;;;;5078563;28;19916;-81
2021/03/18 07:57:39;;;;;;;;;;;102.90;2227.20;;;;;;5078930;28;19994;-85
2021/03/18 08:00:09;;;;;;;;;;;102.80;2227.20;;;;;;5078946;28;19904;-81
2021/03/18 08:02:34;;;;;;;;;;;102.70;2227.20;;;;;;5078645;28;20348;-81
2021/03/18 08:05:00;;;;;;;;;;;102.90;2227.20;;;;;;5076895;28;19904;-82
2021/03/18 08:07:41;;;;;;;;;;;103.00;2227.20;;;;;;5078451;28;20379;-81
2021/03/18 08:10:11;;;;;;;;;;;103.00;2227.20;;;;;;5078717;28;19904;-80
2021/03/18 08:12:44;;;;;;;;;;;128.00;2252.80;;;;;;5071608;28;19951;-80
2021/03/18 08:15:19;;;;;;;;;;;103.10;2227.20;;;;;;5096428;28;19904;-80
2021/03/18 08:17:44;;;;;;;;;;;102.80;2227.20;;;;;;5078545;28;19922;-81
2021/03/18 08:20:11;;;;;;;;;;;102.80;2227.20;;;;;;5077843;28;19979;-82
2021/03/18 08:22:36;;;;;;;;;;;102.90;2227.20;;;;;;5076649;28;19904;-80
2021/03/18 08:25:19;;;;;;;;;;;102.90;2227.20;;;;;;5076912;28;19916;-81
2021/03/18 08:27:45;;;;;;;;;;;103.00;2227.20;;;;;;5078284;28;19912;-80
2021/03/18 08:30:31;;;;;;;;;;;103.30;2227.20;;;;;;5077523;28;19910;-80
2021/03/18 08:32:57;;;;;;;;;;;103.30;2227.20;;;;;;5077369;28;20347;-85
2021/03/18 08:35:27;;;;;;;;;;;128.10;2252.80;;;;;;5078314;28;19950;-84
2021/03/18 08:37:55;;;;;;;;;;;128.20;2252.80;;;;;;5078516;28;19904;-81
2021/03/18 08:40:20;;;;;;;;;;;103.20;2227.20;;;;;;5078208;28;19966;-82
2021/03/18 08:42:47;;;;;;;;;;;102.90;2227.20;;;;;;5077914;28;20279;-81
2021/03/18 08:45:18;;;;;;;;;;;103.00;2227.20;;;;;;5077804;28;19904;-81
2021/03/18 08:47:45;;;;;;;;;;;102.90;2227.20;;;;;;5078042;28;20370;-80
2021/03/18 08:50:34;;;;;;;;;;;102.80;2227.20;;;;;;5078024;28;20272;-82
2021/03/18 08:53:00;;;;;;;;;;;103.00;2227.20;;;;;;5077305;28;20375;-80
2021/03/18 08:55:44;;;;;;;;;;;103.00;2227.20;;;;;;5077877;28;20376;-81
2021/03/18 08:58:11;;;;;;;;;;;103.00;2227.20;;;;;;5077920;28;19911;-81
2021/03/18 09:00:37;;;;;;;;;;;102.90;2227.20;;;;;;5077634;28;19927;-86
2021/03/18 09:03:03;;;;;;;;;;;103.00;2227.20;;;;;;5077501;28;19955;-79
2021/03/18 09:05:29;;;;;;;;;;;103.10;2227.20;;;;;;5077347;28;19904;-79
2021/03/18 09:07:59;;;;;;;;;;;102.80;2227.20;;;;;;5076037;28;19912;-80
2021/03/18 09:10:35;;;;;;;;;;;102.80;2227.20;;;;;;5077381;28;19912;-80
2021/03/18 09:13:14;;;;;;;;;;;102.80;2227.20;;;;;;5072859;28;19952;-80
2021/03/18 09:15:41;;;;;;;;;;;102.90;2227.20;;;;;;5077038;28;20401;-79
2021/03/18 09:18:20;;;;;;;;;;;103.00;2227.20;;;;;;5077113;28;19987;-79
2021/03/18 09:20:49;;;;;;;;;;;103.20;2227.20;;;;;;5076876;28;20271;-79
2021/03/18 09:23:20;;;;;;;;;;;103.30;2227.20;;;;;;5076776;28;20057;-83
2021/03/18 09:25:47;;;;;;;;;;;103.20;2227.20;;;;;;5075704;28;20364;-86
2021/03/18 09:28:13;;;;;;;;;;;103.20;2227.20;;;;;;5074669;28;19912;-80
2021/03/18 09:30:45;;;;;;;;;;;103.00;2227.20;;;;;;5076454;28;20340;-84
2021/03/18 09:33:27;;;;;;;;;;;103.00;2227.20;;;;;;5095041;28;20394;-80
2021/03/18 09:35:54;;;;;;;;;;;103.00;2227.20;;;;;;5075958;28;19997;-83
2021/03/18 09:38:21;;;;;;;;;;;103.00;2227.20;;;;;;5094362;28;19905;-80
2021/03/18 09:40:48;;;;;;;;;;;103.00;2227.20;;;;;;5076734;28;19911;-79
2021/03/18 09:43:14;;;;;;;;;;;102.80;2227.20;;;;;;5076862;28;20010;-80
2021/03/18 09:45:47;;;;;;;;;;;102.70;2227.20;;;;;;5076649;28;19910;-86
2021/03/18 09:48:20;;;;;;;;;;;102.90;2227.20;;;;;;5076626;28;19965;-79
2021/03/18 09:50:46;;;;;;;;;;;102.80;2227.20;;;;;;5076668;28;19949;-80
2021/03/18 09:53:12;;;;;;;;;;;102.90;2227.20;;;;;;5076277;28;19919;-80
2021/03/18 09:55:38;;;;;;;;;;;103.00;2227.20;;;;;;5076271;28;19919;-81
2021/03/18 09:58:22;;;;;;;;;;;103.10;2227.20;;;;;;5075552;28;19946;-82
2021/03/18 10:00:47;;;;;;;;;;;103.30;2227.20;;;;;;5073298;28;19954;-81
2021/03/18 10:03:14;;;;;;;;;;;103.10;2227.20;;;;;;5086161;28;19909;-80
2021/03/18 10:05:40;;;;;;;;;;;103.20;2227.20;;;;;;5075633;28;19926;-82
2021/03/18 10:08:05;;;;;;;;;;;103.20;2227.20;;;;;;5075021;28;20498;-84
2021/03/18 10:10:32;;;;;;;;;;;103.10;2227.20;;;;;;5076139;28;19944;-81
2021/03/18 10:12:58;;;;;;;;;;;103.10;2227.20;;;;;;5076178;28;19904;-83
2021/03/18 10:15:24;;;;;;;;;;;103.00;2227.20;;;;;;5075982;28;19904;-79
2021/03/18 10:17:50;;;;;;;;;;;128.00;2252.80;;;;;;5076167;28;19904;-80
2021/03/18 10:20:19;;;;;;;;;;;128.00;2252.80;;;;;;5076340;28;19904;-82
2021/03/18 10:22:47;;;;;;;;;;;103.20;2227.20;;;;;;5076274;28;19904;-79
2021/03/18 10:25:13;;;;;;;;;;;103.30;2227.20;;;;;;5073465;28;19912;-80
2021/03/18 10:27:40;;;;;;;;;;;103.10;2227.20;;;;;;5073599;28;20283;-81
2021/03/18 10:30:08;;;;;;;;;;;103.20;2227.20;;;;;;5093118;28;19904;-80
2021/03/18 10:32:34;;;;;;;;;;;103.20;2227.20;;;;;;5071854;28;19931;-81
2021/03/18 10:34:59;;;;;;;;;;;103.20;2227.20;;;;;;5075176;28;19904;-80
2021/03/18 10:37:26;;;;;;;;;;;103.20;2227.20;;;;;;5074438;28;19904;-79
2021/03/18 10:40:11;;;;;;;;;;;103.30;2227.20;;;;;;5093833;28;20321;-78
2021/03/18 10:42:36;;;;;;;;;;;103.20;2227.20;;;;;;5094217;28;20370;-80
2021/03/18 10:45:12;;;;;;;;;;;103.30;2227.20;;;;;;5075851;28;19998;-83
2021/03/18 10:47:42;;;;;;;;;;;103.20;2227.20;;;;;;5075540;28;19994;-87
2021/03/18 10:50:08;;;;;;;;;;;128.00;2252.80;;;;;;5076465;28;19908;-89
2021/03/18 10:52:34;;;;;;;;;;;128.20;2252.80;;;;;;5076054;28;19957;-80
2021/03/18 10:54:59;;;;;;;;;;;128.00;2252.80;;;;;;5076163;28;19916;-92
2021/03/18 10:57:26;;;;;;;;;;;103.10;2227.20;;;;;;5075545;28;20011;-81
2021/03/18 10:59:58;;;;;;;;;;;103.10;2227.20;;;;;;5075658;28;19958;-90
2021/03/18 11:02:24;;;;;;;;;;;103.10;2227.20;;;;;;5076081;28;19911;-79
2021/03/18 11:04:57;;;;;;;;;;;103.30;2227.20;;;;;;5076331;28;19904;-80
2021/03/18 11:07:23;;;;;;;;;;;128.00;2252.80;;;;;;5075966;28;19908;-80
2021/03/18 11:10:09;;;;;;;;;;;128.20;2252.80;;;;;;5075596;28;19953;-79
2021/03/18 11:12:35;;;;;;;;;;;128.30;2252.80;;;;;;5071439;28;19912;-85
2021/03/18 11:15:00;;;;;;;;;;;128.20;2252.80;;;;;;5074324;28;19911;-85
2021/03/18 11:17:27;;;;;;;;;;;128.20;2252.80;;;;;;5075470;28;20383;-85
2021/03/18 11:20:09;;;;;;;;;;;128.40;2252.80;;;;;;5073079;28;19911;-80
2021/03/18 11:22:34;;;;;;;;;;;128.50;2252.80;;;;;;5073047;28;19957;-80
2021/03/18 11:25:00;;;;;;;;;;;128.80;2252.80;;;;;;5074977;28;19920;-79
2021/03/18 11:27:26;;;;;;;;;;;128.80;2252.80;;;;;;5074663;28;19912;-79
2021/03/18 11:29:51;;;;;;;;;;;128.70;2252.80;;;;;;5074867;28;19915;-79
2021/03/18 11:32:22;;;;;;;;;;;128.70;2252.80;;;;;;5074192;28;19904;-79
2021/03/18 11:34:52;;;;;;;;;;;128.70;2252.80;;;;;;5072315;28;19904;-84
2021/03/18 11:37:17;;;;;;;;;;;128.70;2252.80;;;;;;5075706;28;19995;-81
2021/03/18 11:39:43;;;;;;;;;;;128.60;2252.80;;;;;;5075371;28;19947;-84
2021/03/18 11:42:08;;;;;;;;;;;128.60;2252.80;;;;;;5073973;28;19904;-82
2021/03/18 11:44:34;;;;;;;;;;;128.90;2252.80;;;;;;5077720;28;19977;-81
2021/03/18 11:47:00;;;;;;;;;;;128.80;2252.80;;;;;;5078659;28;20360;-86
2021/03/18 11:49:26;;;;;;;;;;;153.60;2252.80;;;;;;5078779;28;19904;-81
2021/03/18 11:51:52;;;;;;;;;;;153.80;2252.80;;;;;;5079188;28;19957;-82
2021/03/18 11:54:17;;;;;;;;;;;154.00;2252.80;;;;;;5078456;28;20383;-81
2021/03/18 11:56:43;;;;;;;;;;;154.00;2252.80;;;;;;5078591;28;19910;-81
2021/03/18 11:59:08;;;;;;;;;;;154.00;2252.80;;;;;;5077902;28;19908;-86
2021/03/18 12:01:34;;;;;;;;;;;154.20;2252.80;;;;;;5078048;28;20390;-81
2021/03/18 12:04:00;;;;;;;;;;;154.10;2252.80;;;;;;5078800;28;19911;-80
2021/03/18 12:06:25;;;;;;;;;;;154.30;2252.80;;;;;;5078591;28;20352;-80
2021/03/18 12:08:51;;;;;;;;;;;154.50;2252.80;;;;;;5096297;28;20127;-80
2021/03/18 12:11:17;;;;;;;;;;;179.30;2252.80;;;;;;5077802;28;19910;-81
2021/03/18 12:13:42;;;;;;;;;;;179.30;2252.80;;;;;;5078430;28;19911;-81
2021/03/18 12:16:08;;;;;;;;;;;179.30;2252.80;;;;;;5095990;28;19904;-81
2021/03/18 12:18:34;;;;;;;;;;;179.50;2252.80;;;;;;5078440;28;19907;-86
2021/03/18 12:20:59;;;;;;;;;;;179.60;2252.80;;;;;;5096077;28;20238;-80
2021/03/18 12:23:25;;;;;;;;;;;179.50;2252.80;;;;;;5078276;28;19908;-85
2021/03/18 12:25:50;;;;;;;;;;;179.60;2252.80;;;;;;5077945;28;19939;-80
2021/03/18 12:28:16;;;;;;;;;;;179.70;2252.80;;;;;;5095813;28;19911;-84
2021/03/18 12:30:45;;;;;;;;;;;179.70;2252.80;;;;;;5077307;28;19908;-88
2021/03/18 12:33:12;;;;;;;;;;;179.90;2201.60;;;;;;5066403;28;19904;-89
2021/03/18 12:35:38;;;;;;;;;;;204.90;2227.20;;;;;;5077721;28;19904;-88
2021/03/18 12:38:03;;;;;;;;;;;204.80;2176.00;;;;;;5077890;28;19911;-85
2021/03/18 12:40:29;;;;;;;;;;;204.80;2201.60;;;;;;5077433;28;19912;-88
2021/03/18 12:42:54;;;;;;;;;;;180.00;2176.00;;;;;;5094629;28;19931;-81
2021/03/18 12:45:20;;;;;;;;;;;180.00;2150.40;;;;;;5069928;28;19915;-87
2021/03/18 12:47:46;;;;;;;;;;;179.80;2201.60;;;;;;5093961;28;19912;-91
2021/03/18 12:50:15;;;;;;;;;;;179.70;2176.00;;;;;;5068270;28;19920;-92
2021/03/18 12:52:41;;;;;;;;;;;179.70;2150.40;;;;;;5092103;28;19915;-92
2021/03/18 12:55:07;;;;;;;;;;;179.70;2124.80;;;;;;5077306;28;19916;-80
2021/03/18 12:57:33;;;;;;;;;;;179.50;2124.80;;;;;;5077401;28;19904;-81
2021/03/18 12:59:59;;;;;;;;;;;179.80;2124.80;;;;;;5095954;28;20287;-84
2021/03/18 13:02:25;;;;;;;;;;;179.70;2099.20;;;;;;5077100;28;19903;-81
2021/03/18 13:04:50;;;;;;;;;;;179.90;2022.40;;;;;;5078211;28;19944;-84
2021/03/18 13:07:16;;;;;;;;;;;204.80;1894.40;;;;;;5095828;28;19907;-83
2021/03/18 13:09:42;;;;;;;;;;;204.90;1894.40;;;;;;5078518;28;19912;-81
2021/03/18 13:12:07;;;;;;;;;;;204.90;1894.40;;;;;;5078340;28;20348;-80
2021/03/18 13:14:33;;;;;;;;;;;204.90;1971.20;;;;;;5077434;28;20371;-91
2021/03/18 13:16:59;;;;;;;;;;;180.10;1920.00;;;;;;5077573;28;19954;-89
2021/03/18 13:19:25;;;;;;;;;;;179.60;2022.40;;;;;;5077799;28;19961;-90
2021/03/18 13:21:53;;;;;;;;;;;179.40;2022.40;;;;;;5095629;28;19943;-90
2021/03/18 13:24:19;;;;;;;;;;;179.50;2099.20;;;;;;5077521;28;19920;-89
2021/03/18 13:26:46;;;;;;;;;;;179.80;2048.00;;;;;;5095202;28;19969;-89
2021/03/18 13:29:11;;;;;;;;;;;180.00;1920.00;;;;;;5095579;28;19982;-89
2021/03/18 13:31:37;;;;;;;;;;;179.90;1945.60;;;;;;5094676;28;19939;-89
2021/03/18 13:34:02;;;;;;;;;;;179.90;1971.20;;;;;;5095117;28;19951;-89
2021/03/18 13:36:28;;;;;;;;;;;179.90;1945.60;;;;;;5077526;28;19908;-89
2021/03/18 13:38:54;;;;;;;;;;;179.70;1996.80;;;;;;5095420;28;19915;-91
2021/03/18 13:41:19;;;;;;;;;;;179.90;1996.80;;;;;;5076963;28;19932;-90
2021/03/18 13:43:45;;;;;;;;;;;179.90;1971.20;;;;;;5095489;28;19904;-90